Terminal Aerodrome Forecast
Issued by NWS Twin Cities, MN

Home | Current Version | Previous Version | Graphics & Text | Print | Product List | Glossary On
Versions: 1 2 3 4 5 6 7 8 9 10 11 12 13 14 15 16 17 18 19 20 21
000
FTUS43 KMPX 252338
TAFEAU
TAF
KEAU 252338Z 2600/2624 07011G17KT P6SM OVC022
     FM260100 06008KT 6SM -RA BR OVC015
     FM260400 04007KT 5SM -RA BR OVC008
     FM260600 03007KT 3SM -RADZ BR SCT003 OVC005
     FM262000 02005KT 6SM BR OVC006=

USA.gov is the U.S. government's official web portal to all federal, state and local government web resources and services.